sensor_id;sensor_type;location;lat;lon;timestamp;P1;durP1;ratioP1;P2;durP2;ratioP2
21771;SDS011;11047;47.904;8.110;2023-04-24T00:00:15;0.40;;;0.40;;
21771;SDS011;11047;47.904;8.110;2023-04-24T00:02:43;5.93;;;0.95;;
21771;SDS011;11047;47.904;8.110;2023-04-24T00:05:12;8.98;;;2.65;;
21771;SDS011;11047;47.904;8.110;2023-04-24T00:07:39;2.42;;;0.55;;
21771;SDS011;11047;47.904;8.110;2023-04-24T00:10:07;4.88;;;0.98;;
21771;SDS011;11047;47.904;8.110;2023-04-24T00:12:36;2.15;;;0.60;;
21771;SDS011;11047;47.904;8.110;2023-04-24T00:15:03;0.93;;;0.40;;
21771;SDS011;11047;47.904;8.110;2023-04-24T00:17:31;1.90;;;0.45;;
21771;SDS011;11047;47.904;8.110;2023-04-24T00:19:58;3.15;;;0.80;;
21771;SDS011;11047;47.904;8.110;2023-04-24T00:22:24;1.70;;;0.60;;
21771;SDS011;11047;47.904;8.110;2023-04-24T00:24:51;1.45;;;0.63;;
21771;SDS011;11047;47.904;8.110;2023-04-24T00:27:18;2.95;;;1.10;;
21771;SDS011;11047;47.904;8.110;2023-04-24T00:29:47;4.13;;;1.27;;
21771;SDS011;11047;47.904;8.110;2023-04-24T00:32:14;1.45;;;0.63;;
21771;SDS011;11047;47.904;8.110;2023-04-24T00:34:41;2.28;;;0.60;;
21771;SDS011;11047;47.904;8.110;2023-04-24T00:37:08;0.82;;;0.60;;
21771;SDS011;11047;47.904;8.110;2023-04-24T00:39:35;2.38;;;0.38;;
21771;SDS011;11047;47.904;8.110;2023-04-24T00:42:01;5.32;;;1.10;;
21771;SDS011;11047;47.904;8.110;2023-04-24T00:44:30;1.65;;;1.27;;
21771;SDS011;11047;47.904;8.110;2023-04-24T00:46:59;4.78;;;0.50;;
21771;SDS011;11047;47.904;8.110;2023-04-24T00:49:27;2.63;;;1.20;;
21771;SDS011;11047;47.904;8.110;2023-04-24T00:51:54;4.68;;;0.75;;
21771;SDS011;11047;47.904;8.110;2023-04-24T00:54:21;1.00;;;0.60;;
21771;SDS011;11047;47.904;8.110;2023-04-24T00:56:48;1.60;;;0.70;;
21771;SDS011;11047;47.904;8.110;2023-04-24T00:59:16;2.38;;;0.70;;
21771;SDS011;11047;47.904;8.110;2023-04-24T01:01:43;1.70;;;0.40;;
21771;SDS011;11047;47.904;8.110;2023-04-24T01:04:12;4.65;;;0.57;;
21771;SDS011;11047;47.904;8.110;2023-04-24T01:09:36;1.95;;;0.43;;
21771;SDS011;11047;47.904;8.110;2023-04-24T01:12:04;1.90;;;1.05;;
21771;SDS011;11047;47.904;8.110;2023-04-24T01:14:31;1.10;;;1.00;;
21771;SDS011;11047;47.904;8.110;2023-04-24T01:16:58;1.95;;;0.85;;
21771;SDS011;11047;47.904;8.110;2023-04-24T01:19:26;1.27;;;0.40;;
21771;SDS011;11047;47.904;8.110;2023-04-24T01:21:54;1.35;;;0.82;;
21771;SDS011;11047;47.904;8.110;2023-04-24T01:24:27;2.25;;;1.63;;
21771;SDS011;11047;47.904;8.110;2023-04-24T01:26:55;0.50;;;0.40;;
21771;SDS011;11047;47.904;8.110;2023-04-24T01:29:22;0.75;;;0.55;;
21771;SDS011;11047;47.904;8.110;2023-04-24T01:31:49;1.45;;;0.55;;
21771;SDS011;11047;47.904;8.110;2023-04-24T01:34:17;0.85;;;0.30;;
21771;SDS011;11047;47.904;8.110;2023-04-24T01:36:45;2.08;;;0.57;;
21771;SDS011;11047;47.904;8.110;2023-04-24T01:39:12;1.50;;;0.50;;
21771;SDS011;11047;47.904;8.110;2023-04-24T01:41:42;3.60;;;0.85;;
21771;SDS011;11047;47.904;8.110;2023-04-24T01:44:09;2.20;;;0.57;;
21771;SDS011;11047;47.904;8.110;2023-04-24T01:46:36;2.72;;;0.65;;
21771;SDS011;11047;47.904;8.110;2023-04-24T01:49:03;0.55;;;0.35;;
21771;SDS011;11047;47.904;8.110;2023-04-24T01:51:30;3.22;;;1.17;;
21771;SDS011;11047;47.904;8.110;2023-04-24T01:53:57;3.28;;;0.40;;
21771;SDS011;11047;47.904;8.110;2023-04-24T01:56:24;1.70;;;0.70;;
21771;SDS011;11047;47.904;8.110;2023-04-24T01:58:55;1.65;;;1.27;;
21771;SDS011;11047;47.904;8.110;2023-04-24T02:01:23;0.50;;;0.45;;
21771;SDS011;11047;47.904;8.110;2023-04-24T02:03:50;0.68;;;0.50;;
21771;SDS011;11047;47.904;8.110;2023-04-24T02:06:17;2.25;;;0.60;;
21771;SDS011;11047;47.904;8.110;2023-04-24T02:08:44;1.77;;;0.60;;
21771;SDS011;11047;47.904;8.110;2023-04-24T02:11:11;3.75;;;0.50;;
21771;SDS011;11047;47.904;8.110;2023-04-24T02:13:38;2.85;;;0.60;;
21771;SDS011;11047;47.904;8.110;2023-04-24T02:16:06;1.40;;;0.57;;
21771;SDS011;11047;47.904;8.110;2023-04-24T02:18:33;0.47;;;0.47;;
21771;SDS011;11047;47.904;8.110;2023-04-24T02:21:00;1.98;;;0.70;;
21771;SDS011;11047;47.904;8.110;2023-04-24T02:23:27;1.15;;;0.63;;
21771;SDS011;11047;47.904;8.110;2023-04-24T02:25:54;1.48;;;0.47;;
21771;SDS011;11047;47.904;8.110;2023-04-24T02:28:21;0.68;;;0.57;;
21771;SDS011;11047;47.904;8.110;2023-04-24T02:30:47;1.73;;;0.50;;
21771;SDS011;11047;47.904;8.110;2023-04-24T02:33:16;1.15;;;0.40;;
21771;SDS011;11047;47.904;8.110;2023-04-24T02:35:43;1.02;;;0.45;;
21771;SDS011;11047;47.904;8.110;2023-04-24T02:38:09;3.00;;;0.68;;
21771;SDS011;11047;47.904;8.110;2023-04-24T02:40:36;1.75;;;0.52;;
21771;SDS011;11047;47.904;8.110;2023-04-24T02:43:03;3.63;;;0.63;;
21771;SDS011;11047;47.904;8.110;2023-04-24T02:45:30;2.58;;;1.23;;
21771;SDS011;11047;47.904;8.110;2023-04-24T02:47:59;0.95;;;0.47;;
21771;SDS011;11047;47.904;8.110;2023-04-24T02:50:27;1.35;;;0.43;;
21771;SDS011;11047;47.904;8.110;2023-04-24T02:52:54;0.40;;;0.28;;
21771;SDS011;11047;47.904;8.110;2023-04-24T02:55:21;0.28;;;0.20;;
21771;SDS011;11047;47.904;8.110;2023-04-24T02:57:48;2.03;;;0.43;;
21771;SDS011;11047;47.904;8.110;2023-04-24T03:00:15;1.40;;;0.60;;
21771;SDS011;11047;47.904;8.110;2023-04-24T03:02:42;1.15;;;0.28;;
21771;SDS011;11047;47.904;8.110;2023-04-24T03:05:09;1.23;;;0.20;;
21771;SDS011;11047;47.904;8.110;2023-04-24T03:07:38;1.17;;;0.20;;
21771;SDS011;11047;47.904;8.110;2023-04-24T03:10:05;0.40;;;0.20;;
21771;SDS011;11047;47.904;8.110;2023-04-24T03:12:33;0.80;;;0.57;;
21771;SDS011;11047;47.904;8.110;2023-04-24T03:15:00;0.85;;;0.50;;
21771;SDS011;11047;47.904;8.110;2023-04-24T03:17:27;1.92;;;0.45;;
21771;SDS011;11047;47.904;8.110;2023-04-24T03:19:54;1.25;;;0.50;;
21771;SDS011;11047;47.904;8.110;2023-04-24T03:22:21;0.55;;;0.40;;
21771;SDS011;11047;47.904;8.110;2023-04-24T03:24:49;1.90;;;0.57;;
21771;SDS011;11047;47.904;8.110;2023-04-24T03:27:16;1.08;;;0.98;;
21771;SDS011;11047;47.904;8.110;2023-04-24T03:29:43;1.55;;;0.40;;
21771;SDS011;11047;47.904;8.110;2023-04-24T03:32:10;0.40;;;0.40;;
21771;SDS011;11047;47.904;8.110;2023-04-24T03:34:37;0.60;;;0.60;;
21771;SDS011;11047;47.904;8.110;2023-04-24T03:37:04;0.45;;;0.40;;
21771;SDS011;11047;47.904;8.110;2023-04-24T03:39:30;1.27;;;0.40;;
21771;SDS011;11047;47.904;8.110;2023-04-24T03:41:59;1.67;;;0.47;;
21771;SDS011;11047;47.904;8.110;2023-04-24T03:44:26;0.47;;;0.45;;
21771;SDS011;11047;47.904;8.110;2023-04-24T03:46:53;0.35;;;0.17;;
21771;SDS011;11047;47.904;8.110;2023-04-24T03:49:20;0.20;;;0.20;;
21771;SDS011;11047;47.904;8.110;2023-04-24T03:51:47;1.55;;;0.45;;
21771;SDS011;11047;47.904;8.110;2023-04-24T03:54:13;0.30;;;0.30;;
21771;SDS011;11047;47.904;8.110;2023-04-24T03:56:40;1.00;;;0.60;;
21771;SDS011;11047;47.904;8.110;2023-04-24T03:59:08;0.30;;;0.30;;
21771;SDS011;11047;47.904;8.110;2023-04-24T04:01:35;1.27;;;0.85;;
21771;SDS011;11047;47.904;8.110;2023-04-24T04:04:03;1.23;;;0.88;;
21771;SDS011;11047;47.904;8.110;2023-04-24T04:06:30;1.83;;;1.15;;
21771;SDS011;11047;47.904;8.110;2023-04-24T04:08:57;0.80;;;0.30;;
21771;SDS011;11047;47.904;8.110;2023-04-24T04:11:24;0.77;;;0.60;;
21771;SDS011;11047;47.904;8.110;2023-04-24T04:13:51;0.25;;;0.20;;
21771;SDS011;11047;47.904;8.110;2023-04-24T04:16:19;1.92;;;0.90;;
21771;SDS011;11047;47.904;8.110;2023-04-24T04:18:46;0.40;;;0.40;;
21771;SDS011;11047;47.904;8.110;2023-04-24T04:21:13;1.02;;;0.77;;
21771;SDS011;11047;47.904;8.110;2023-04-24T04:23:40;0.93;;;0.50;;
21771;SDS011;11047;47.904;8.110;2023-04-24T04:26:07;2.35;;;0.57;;
21771;SDS011;11047;47.904;8.110;2023-04-24T04:28:34;0.50;;;0.50;;
21771;SDS011;11047;47.904;8.110;2023-04-24T04:31:03;1.65;;;0.88;;
21771;SDS011;11047;47.904;8.110;2023-04-24T04:33:31;3.63;;;1.48;;
21771;SDS011;11047;47.904;8.110;2023-04-24T04:35:58;2.28;;;1.55;;
21771;SDS011;11047;47.904;8.110;2023-04-24T04:38:25;1.23;;;0.85;;
21771;SDS011;11047;47.904;8.110;2023-04-24T04:40:55;3.10;;;2.05;;
21771;SDS011;11047;47.904;8.110;2023-04-24T04:43:22;1.00;;;0.85;;
21771;SDS011;11047;47.904;8.110;2023-04-24T04:45:49;1.60;;;1.17;;
21771;SDS011;11047;47.904;8.110;2023-04-24T04:48:17;3.15;;;1.45;;
21771;SDS011;11047;47.904;8.110;2023-04-24T04:50:45;1.55;;;1.38;;
21771;SDS011;11047;47.904;8.110;2023-04-24T04:53:12;2.38;;;2.17;;
21771;SDS011;11047;47.904;8.110;2023-04-24T04:55:39;2.05;;;1.65;;
21771;SDS011;11047;47.904;8.110;2023-04-24T04:58:06;3.53;;;1.48;;
21771;SDS011;11047;47.904;8.110;2023-04-24T05:00:33;2.33;;;1.60;;
21771;SDS011;11047;47.904;8.110;2023-04-24T05:03:00;2.90;;;1.20;;
21771;SDS011;11047;47.904;8.110;2023-04-24T05:05:27;4.07;;;3.67;;
21771;SDS011;11047;47.904;8.110;2023-04-24T05:07:56;3.85;;;2.90;;
21771;SDS011;11047;47.904;8.110;2023-04-24T05:10:23;3.45;;;1.88;;
21771;SDS011;11047;47.904;8.110;2023-04-24T05:12:50;3.55;;;2.13;;
21771;SDS011;11047;47.904;8.110;2023-04-24T05:15:16;3.22;;;1.80;;
21771;SDS011;11047;47.904;8.110;2023-04-24T05:17:43;1.55;;;1.45;;
21771;SDS011;11047;47.904;8.110;2023-04-24T05:20:10;4.97;;;1.80;;
21771;SDS011;11047;47.904;8.110;2023-04-24T05:22:37;2.15;;;1.38;;
21771;SDS011;11047;47.904;8.110;2023-04-24T05:25:06;2.45;;;1.77;;
21771;SDS011;11047;47.904;8.110;2023-04-24T05:27:33;2.70;;;1.95;;
21771;SDS011;11047;47.904;8.110;2023-04-24T05:30:01;3.30;;;1.98;;
21771;SDS011;11047;47.904;8.110;2023-04-24T05:32:27;1.88;;;1.30;;
21771;SDS011;11047;47.904;8.110;2023-04-24T05:34:54;3.03;;;2.22;;
21771;SDS011;11047;47.904;8.110;2023-04-24T05:37:21;3.70;;;1.30;;
21771;SDS011;11047;47.904;8.110;2023-04-24T05:39:48;1.60;;;1.50;;
21771;SDS011;11047;47.904;8.110;2023-04-24T05:42:16;4.13;;;2.08;;
21771;SDS011;11047;47.904;8.110;2023-04-24T05:44:43;2.08;;;1.30;;
21771;SDS011;11047;47.904;8.110;2023-04-24T05:47:10;2.92;;;1.45;;
21771;SDS011;11047;47.904;8.110;2023-04-24T05:49:37;3.53;;;1.35;;
21771;SDS011;11047;47.904;8.110;2023-04-24T05:52:04;2.03;;;1.55;;
21771;SDS011;11047;47.904;8.110;2023-04-24T05:54:33;4.85;;;2.20;;
21771;SDS011;11047;47.904;8.110;2023-04-24T05:57:01;2.65;;;1.88;;
21771;SDS011;11047;47.904;8.110;2023-04-24T05:59:36;4.05;;;2.15;;
21771;SDS011;11047;47.904;8.110;2023-04-24T06:02:05;2.72;;;1.73;;
21771;SDS011;11047;47.904;8.110;2023-04-24T06:04:32;4.80;;;1.70;;
21771;SDS011;11047;47.904;8.110;2023-04-24T06:06:59;6.28;;;4.22;;
21771;SDS011;11047;47.904;8.110;2023-04-24T06:09:26;1.90;;;1.65;;
21771;SDS011;11047;47.904;8.110;2023-04-24T06:11:53;1.63;;;1.52;;
21771;SDS011;11047;47.904;8.110;2023-04-24T06:14:21;3.70;;;1.77;;
21771;SDS011;11047;47.904;8.110;2023-04-24T06:16:49;1.85;;;1.67;;
21771;SDS011;11047;47.904;8.110;2023-04-24T06:19:16;2.95;;;1.27;;
21771;SDS011;11047;47.904;8.110;2023-04-24T06:21:43;3.85;;;2.00;;
21771;SDS011;11047;47.904;8.110;2023-04-24T06:24:10;2.17;;;1.65;;
21771;SDS011;11047;47.904;8.110;2023-04-24T06:26:40;2.42;;;2.00;;
21771;SDS011;11047;47.904;8.110;2023-04-24T06:29:07;1.85;;;1.40;;
21771;SDS011;11047;47.904;8.110;2023-04-24T06:31:34;2.65;;;1.88;;
21771;SDS011;11047;47.904;8.110;2023-04-24T06:34:03;1.65;;;1.55;;
21771;SDS011;11047;47.904;8.110;2023-04-24T06:36:30;7.00;;;2.70;;
21771;SDS011;11047;47.904;8.110;2023-04-24T06:38:59;3.53;;;1.70;;
21771;SDS011;11047;47.904;8.110;2023-04-24T06:41:26;1.60;;;1.50;;
21771;SDS011;11047;47.904;8.110;2023-04-24T06:43:54;3.92;;;1.60;;
21771;SDS011;11047;47.904;8.110;2023-04-24T06:46:21;2.40;;;1.65;;
21771;SDS011;11047;47.904;8.110;2023-04-24T06:48:50;1.60;;;1.50;;
21771;SDS011;11047;47.904;8.110;2023-04-24T06:51:22;1.85;;;1.40;;
21771;SDS011;11047;47.904;8.110;2023-04-24T06:53:49;4.25;;;1.92;;
21771;SDS011;11047;47.904;8.110;2023-04-24T06:56:16;2.15;;;1.58;;
21771;SDS011;11047;47.904;8.110;2023-04-24T06:58:43;1.83;;;1.63;;
21771;SDS011;11047;47.904;8.110;2023-04-24T07:01:10;4.30;;;1.98;;
21771;SDS011;11047;47.904;8.110;2023-04-24T07:03:37;3.55;;;1.65;;
21771;SDS011;11047;47.904;8.110;2023-04-24T07:06:04;1.90;;;1.65;;
21771;SDS011;11047;47.904;8.110;2023-04-24T07:08:33;2.00;;;1.80;;
21771;SDS011;11047;47.904;8.110;2023-04-24T07:11:01;2.05;;;1.10;;
21771;SDS011;11047;47.904;8.110;2023-04-24T07:13:28;1.73;;;1.38;;
21771;SDS011;11047;47.904;8.110;2023-04-24T07:15:55;2.70;;;1.80;;
21771;SDS011;11047;47.904;8.110;2023-04-24T07:18:22;3.83;;;1.90;;
21771;SDS011;11047;47.904;8.110;2023-04-24T07:20:49;2.70;;;1.25;;
21771;SDS011;11047;47.904;8.110;2023-04-24T07:23:16;3.55;;;2.50;;
21771;SDS011;11047;47.904;8.110;2023-04-24T07:25:44;2.22;;;1.50;;
21771;SDS011;11047;47.904;8.110;2023-04-24T07:28:11;2.65;;;1.63;;
21771;SDS011;11047;47.904;8.110;2023-04-24T07:30:39;3.92;;;1.65;;
21771;SDS011;11047;47.904;8.110;2023-04-24T07:33:05;4.20;;;1.45;;
21771;SDS011;11047;47.904;8.110;2023-04-24T07:35:32;2.22;;;1.70;;
21771;SDS011;11047;47.904;8.110;2023-04-24T07:38:00;1.80;;;1.35;;
21771;SDS011;11047;47.904;8.110;2023-04-24T07:40:38;2.30;;;1.63;;
21771;SDS011;11047;47.904;8.110;2023-04-24T07:43:06;2.75;;;1.88;;
21771;SDS011;11047;47.904;8.110;2023-04-24T07:45:33;4.13;;;2.00;;
21771;SDS011;11047;47.904;8.110;2023-04-24T07:48:02;2.88;;;2.00;;
21771;SDS011;11047;47.904;8.110;2023-04-24T07:50:29;3.05;;;2.20;;
21771;SDS011;11047;47.904;8.110;2023-04-24T07:52:56;4.75;;;1.90;;
21771;SDS011;11047;47.904;8.110;2023-04-24T07:55:23;2.80;;;1.83;;
21771;SDS011;11047;47.904;8.110;2023-04-24T07:57:50;2.92;;;1.60;;
21771;SDS011;11047;47.904;8.110;2023-04-24T08:00:19;2.15;;;1.73;;
21771;SDS011;11047;47.904;8.110;2023-04-24T08:02:46;3.03;;;1.60;;
21771;SDS011;11047;47.904;8.110;2023-04-24T08:05:13;3.60;;;1.30;;
21771;SDS011;11047;47.904;8.110;2023-04-24T08:07:40;2.25;;;1.45;;
21771;SDS011;11047;47.904;8.110;2023-04-24T08:10:09;2.80;;;1.80;;
21771;SDS011;11047;47.904;8.110;2023-04-24T08:12:37;2.22;;;1.65;;
21771;SDS011;11047;47.904;8.110;2023-04-24T08:15:05;1.90;;;1.70;;
21771;SDS011;11047;47.904;8.110;2023-04-24T08:17:34;1.35;;;1.25;;
21771;SDS011;11047;47.904;8.110;2023-04-24T08:20:01;3.65;;;1.60;;
21771;SDS011;11047;47.904;8.110;2023-04-24T08:22:30;1.75;;;1.17;;
21771;SDS011;11047;47.904;8.110;2023-04-24T08:24:59;4.20;;;1.40;;
21771;SDS011;11047;47.904;8.110;2023-04-24T08:27:26;3.95;;;1.73;;
21771;SDS011;11047;47.904;8.110;2023-04-24T08:29:53;4.10;;;1.77;;
21771;SDS011;11047;47.904;8.110;2023-04-24T08:32:20;3.17;;;2.22;;
21771;SDS011;11047;47.904;8.110;2023-04-24T08:34:49;2.95;;;1.85;;
21771;SDS011;11047;47.904;8.110;2023-04-24T08:37:17;1.55;;;1.30;;
21771;SDS011;11047;47.904;8.110;2023-04-24T08:39:44;3.08;;;1.73;;
21771;SDS011;11047;47.904;8.110;2023-04-24T08:42:11;1.88;;;1.60;;
21771;SDS011;11047;47.904;8.110;2023-04-24T08:44:41;1.98;;;1.45;;
21771;SDS011;11047;47.904;8.110;2023-04-24T08:47:08;5.82;;;1.17;;
21771;SDS011;11047;47.904;8.110;2023-04-24T08:49:35;4.25;;;2.38;;
21771;SDS011;11047;47.904;8.110;2023-04-24T08:52:04;1.83;;;1.30;;
21771;SDS011;11047;47.904;8.110;2023-04-24T08:54:32;7.68;;;2.00;;
21771;SDS011;11047;47.904;8.110;2023-04-24T08:57:00;1.23;;;1.10;;
21771;SDS011;11047;47.904;8.110;2023-04-24T08:59:34;5.25;;;1.88;;
21771;SDS011;11047;47.904;8.110;2023-04-24T09:02:01;1.67;;;1.30;;
21771;SDS011;11047;47.904;8.110;2023-04-24T09:04:29;2.53;;;1.42;;
21771;SDS011;11047;47.904;8.110;2023-04-24T09:06:57;2.63;;;1.27;;
21771;SDS011;11047;47.904;8.110;2023-04-24T09:09:27;1.55;;;1.40;;
21771;SDS011;11047;47.904;8.110;2023-04-24T09:11:56;4.70;;;1.52;;
21771;SDS011;11047;47.904;8.110;2023-04-24T09:14:25;3.30;;;1.50;;
21771;SDS011;11047;47.904;8.110;2023-04-24T09:16:53;2.75;;;1.70;;
21771;SDS011;11047;47.904;8.110;2023-04-24T09:19:20;5.05;;;1.33;;
21771;SDS011;11047;47.904;8.110;2023-04-24T09:21:47;4.93;;;2.03;;
21771;SDS011;11047;47.904;8.110;2023-04-24T09:24:15;2.00;;;1.70;;
21771;SDS011;11047;47.904;8.110;2023-04-24T09:32:24;4.10;;;1.65;;
21771;SDS011;11047;47.904;8.110;2023-04-24T09:35:04;6.80;;;1.95;;
21771;SDS011;11047;47.904;8.110;2023-04-24T09:37:35;3.40;;;1.33;;
21771;SDS011;11047;47.904;8.110;2023-04-24T09:40:09;4.70;;;2.00;;
21771;SDS011;11047;47.904;8.110;2023-04-24T09:42:44;3.90;;;1.70;;
21771;SDS011;11047;47.904;8.110;2023-04-24T09:45:12;2.45;;;1.25;;
21771;SDS011;11047;47.904;8.110;2023-04-24T09:47:39;5.00;;;2.15;;
21771;SDS011;11047;47.904;8.110;2023-04-24T09:50:09;3.40;;;1.88;;
21771;SDS011;11047;47.904;8.110;2023-04-24T09:52:41;3.42;;;1.45;;
21771;SDS011;11047;47.904;8.110;2023-04-24T09:55:16;3.28;;;1.50;;
21771;SDS011;11047;47.904;8.110;2023-04-24T09:57:59;6.65;;;2.20;;
21771;SDS011;11047;47.904;8.110;2023-04-24T10:00:31;2.63;;;1.55;;
21771;SDS011;11047;47.904;8.110;2023-04-24T10:02:59;2.33;;;1.75;;
21771;SDS011;11047;47.904;8.110;2023-04-24T10:05:28;3.00;;;1.50;;
21771;SDS011;11047;47.904;8.110;2023-04-24T10:07:56;2.67;;;2.08;;
21771;SDS011;11047;47.904;8.110;2023-04-24T10:10:24;2.97;;;1.65;;
21771;SDS011;11047;47.904;8.110;2023-04-24T10:12:51;4.68;;;1.60;;
21771;SDS011;11047;47.904;8.110;2023-04-24T10:15:20;6.28;;;1.55;;
21771;SDS011;11047;47.904;8.110;2023-04-24T10:17:47;2.95;;;1.50;;
21771;SDS011;11047;47.904;8.110;2023-04-24T10:20:18;2.05;;;1.17;;
21771;SDS011;11047;47.904;8.110;2023-04-24T10:22:50;1.52;;;1.20;;
21771;SDS011;11047;47.904;8.110;2023-04-24T10:25:18;1.55;;;1.10;;
21771;SDS011;11047;47.904;8.110;2023-04-24T10:27:46;3.40;;;1.08;;
21771;SDS011;11047;47.904;8.110;2023-04-24T10:30:14;3.20;;;1.63;;
21771;SDS011;11047;47.904;8.110;2023-04-24T10:32:43;2.72;;;1.40;;
21771;SDS011;11047;47.904;8.110;2023-04-24T10:35:12;2.35;;;1.20;;
21771;SDS011;11047;47.904;8.110;2023-04-24T10:37:42;4.03;;;1.30;;
21771;SDS011;11047;47.904;8.110;2023-04-24T10:40:12;4.70;;;1.52;;
21771;SDS011;11047;47.904;8.110;2023-04-24T10:42:43;1.88;;;1.42;;
21771;SDS011;11047;47.904;8.110;2023-04-24T10:45:17;1.60;;;1.15;;
21771;SDS011;11047;47.904;8.110;2023-04-24T10:47:52;3.10;;;1.25;;
21771;SDS011;11047;47.904;8.110;2023-04-24T10:56:15;3.58;;;1.48;;
21771;SDS011;11047;47.904;8.110;2023-04-24T10:58:43;3.25;;;1.77;;
21771;SDS011;11047;47.904;8.110;2023-04-24T11:01:24;3.38;;;1.52;;
21771;SDS011;11047;47.904;8.110;2023-04-24T11:03:55;1.15;;;0.95;;
21771;SDS011;11047;47.904;8.110;2023-04-24T11:06:33;1.90;;;1.05;;
21771;SDS011;11047;47.904;8.110;2023-04-24T11:09:02;1.98;;;1.40;;
21771;SDS011;11047;47.904;8.110;2023-04-24T11:11:31;2.67;;;1.20;;
21771;SDS011;11047;47.904;8.110;2023-04-24T11:14:02;2.20;;;1.60;;
21771;SDS011;11047;47.904;8.110;2023-04-24T11:16:35;3.13;;;1.02;;
21771;SDS011;11047;47.904;8.110;2023-04-24T11:19:09;1.40;;;1.00;;
21771;SDS011;11047;47.904;8.110;2023-04-24T11:24:49;3.08;;;1.10;;
21771;SDS011;11047;47.904;8.110;2023-04-24T11:27:17;3.38;;;1.38;;
21771;SDS011;11047;47.904;8.110;2023-04-24T11:29:46;3.28;;;1.40;;
21771;SDS011;11047;47.904;8.110;2023-04-24T11:32:25;2.53;;;1.05;;
21771;SDS011;11047;47.904;8.110;2023-04-24T11:34:54;2.70;;;1.15;;
21771;SDS011;11047;47.904;8.110;2023-04-24T11:37:22;3.75;;;1.30;;
21771;SDS011;11047;47.904;8.110;2023-04-24T11:39:51;4.15;;;1.27;;
21771;SDS011;11047;47.904;8.110;2023-04-24T11:42:19;2.33;;;1.38;;
21771;SDS011;11047;47.904;8.110;2023-04-24T11:44:47;2.70;;;1.30;;
21771;SDS011;11047;47.904;8.110;2023-04-24T11:47:27;2.15;;;1.00;;
21771;SDS011;11047;47.904;8.110;2023-04-24T11:49:56;6.40;;;1.27;;
21771;SDS011;11047;47.904;8.110;2023-04-24T11:52:24;2.55;;;1.10;;
21771;SDS011;11047;47.904;8.110;2023-04-24T11:54:50;5.57;;;1.77;;
21771;SDS011;11047;47.904;8.110;2023-04-24T11:57:18;3.42;;;1.20;;
21771;SDS011;11047;47.904;8.110;2023-04-24T11:59:46;5.05;;;1.30;;
21771;SDS011;11047;47.904;8.110;2023-04-24T12:02:19;1.35;;;1.25;;
21771;SDS011;11047;47.904;8.110;2023-04-24T12:04:47;1.23;;;1.13;;
21771;SDS011;11047;47.904;8.110;2023-04-24T12:07:16;4.32;;;1.35;;
21771;SDS011;11047;47.904;8.110;2023-04-24T12:09:45;1.95;;;1.70;;
21771;SDS011;11047;47.904;8.110;2023-04-24T12:12:15;3.35;;;1.77;;
21771;SDS011;11047;47.904;8.110;2023-04-24T12:14:44;2.50;;;1.40;;
21771;SDS011;11047;47.904;8.110;2023-04-24T12:17:13;2.25;;;1.40;;
21771;SDS011;11047;47.904;8.110;2023-04-24T12:19:44;2.92;;;1.35;;
21771;SDS011;11047;47.904;8.110;2023-04-24T12:22:13;3.38;;;1.20;;
21771;SDS011;11047;47.904;8.110;2023-04-24T12:24:57;2.75;;;1.10;;
21771;SDS011;11047;47.904;8.110;2023-04-24T12:27:25;4.55;;;1.33;;
21771;SDS011;11047;47.904;8.110;2023-04-24T12:29:53;1.70;;;1.38;;
21771;SDS011;11047;47.904;8.110;2023-04-24T12:32:21;5.05;;;1.33;;
21771;SDS011;11047;47.904;8.110;2023-04-24T12:34:50;4.38;;;1.80;;
21771;SDS011;11047;47.904;8.110;2023-04-24T12:37:17;2.47;;;1.15;;
21771;SDS011;11047;47.904;8.110;2023-04-24T12:39:44;2.85;;;1.50;;
21771;SDS011;11047;47.904;8.110;2023-04-24T12:42:26;1.88;;;1.40;;
21771;SDS011;11047;47.904;8.110;2023-04-24T12:44:56;1.08;;;0.98;;
21771;SDS011;11047;47.904;8.110;2023-04-24T12:47:27;2.88;;;1.25;;
21771;SDS011;11047;47.904;8.110;2023-04-24T12:49:54;1.52;;;1.20;;
21771;SDS011;11047;47.904;8.110;2023-04-24T12:52:22;1.67;;;1.42;;
21771;SDS011;11047;47.904;8.110;2023-04-24T12:54:52;2.75;;;1.40;;
21771;SDS011;11047;47.904;8.110;2023-04-24T12:57:22;2.55;;;1.50;;
21771;SDS011;11047;47.904;8.110;2023-04-24T12:59:49;2.20;;;1.20;;
21771;SDS011;11047;47.904;8.110;2023-04-24T13:02:20;2.00;;;1.00;;
21771;SDS011;11047;47.904;8.110;2023-04-24T13:04:48;1.95;;;1.55;;
21771;SDS011;11047;47.904;8.110;2023-04-24T13:07:16;3.10;;;1.60;;
21771;SDS011;11047;47.904;8.110;2023-04-24T13:09:43;4.22;;;1.52;;
21771;SDS011;11047;47.904;8.110;2023-04-24T13:12:11;4.65;;;1.15;;
21771;SDS011;11047;47.904;8.110;2023-04-24T13:14:41;3.05;;;1.30;;
21771;SDS011;11047;47.904;8.110;2023-04-24T13:17:08;2.50;;;1.38;;
21771;SDS011;11047;47.904;8.110;2023-04-24T13:19:54;2.10;;;1.30;;
21771;SDS011;11047;47.904;8.110;2023-04-24T13:22:21;4.18;;;1.95;;
21771;SDS011;11047;47.904;8.110;2023-04-24T13:24:48;2.83;;;1.50;;
21771;SDS011;11047;47.904;8.110;2023-04-24T13:27:15;3.33;;;1.42;;
21771;SDS011;11047;47.904;8.110;2023-04-24T13:29:43;1.85;;;1.20;;
21771;SDS011;11047;47.904;8.110;2023-04-24T13:32:11;2.78;;;1.20;;
21771;SDS011;11047;47.904;8.110;2023-04-24T13:34:37;3.05;;;1.13;;
21771;SDS011;11047;47.904;8.110;2023-04-24T13:37:04;2.20;;;1.60;;
21771;SDS011;11047;47.904;8.110;2023-04-24T13:39:33;2.03;;;1.13;;
21771;SDS011;11047;47.904;8.110;2023-04-24T13:42:00;2.38;;;1.50;;
21771;SDS011;11047;47.904;8.110;2023-04-24T13:44:27;4.53;;;1.77;;
21771;SDS011;11047;47.904;8.110;2023-04-24T13:46:55;2.88;;;1.40;;
21771;SDS011;11047;47.904;8.110;2023-04-24T13:49:24;2.33;;;1.40;;
21771;SDS011;11047;47.904;8.110;2023-04-24T13:51:51;2.95;;;1.33;;
21771;SDS011;11047;47.904;8.110;2023-04-24T13:54:19;2.10;;;1.48;;
21771;SDS011;11047;47.904;8.110;2023-04-24T13:56:45;1.58;;;1.40;;
21771;SDS011;11047;47.904;8.110;2023-04-24T13:59:12;1.58;;;1.48;;
21771;SDS011;11047;47.904;8.110;2023-04-24T14:01:58;4.38;;;1.42;;
21771;SDS011;11047;47.904;8.110;2023-04-24T14:04:25;2.03;;;1.40;;
21771;SDS011;11047;47.904;8.110;2023-04-24T14:06:52;2.72;;;1.35;;
21771;SDS011;11047;47.904;8.110;2023-04-24T14:09:18;4.05;;;1.30;;
21771;SDS011;11047;47.904;8.110;2023-04-24T14:11:45;3.05;;;1.48;;
21771;SDS011;11047;47.904;8.110;2023-04-24T14:14:12;2.92;;;1.63;;
21771;SDS011;11047;47.904;8.110;2023-04-24T14:16:40;2.20;;;1.50;;
21771;SDS011;11047;47.904;8.110;2023-04-24T14:19:08;2.28;;;1.13;;
21771;SDS011;11047;47.904;8.110;2023-04-24T14:21:35;4.30;;;1.40;;
21771;SDS011;11047;47.904;8.110;2023-04-24T14:24:02;2.28;;;1.30;;
21771;SDS011;11047;47.904;8.110;2023-04-24T14:26:29;2.35;;;1.30;;
21771;SDS011;11047;47.904;8.110;2023-04-24T14:28:56;4.22;;;1.58;;
21771;SDS011;11047;47.904;8.110;2023-04-24T14:31:23;3.53;;;1.30;;
21771;SDS011;11047;47.904;8.110;2023-04-24T14:33:50;3.30;;;1.70;;
21771;SDS011;11047;47.904;8.110;2023-04-24T14:36:19;1.95;;;1.60;;
21771;SDS011;11047;47.904;8.110;2023-04-24T14:38:46;2.08;;;1.15;;
21771;SDS011;11047;47.904;8.110;2023-04-24T14:41:13;1.27;;;1.17;;
21771;SDS011;11047;47.904;8.110;2023-04-24T14:43:40;1.75;;;1.40;;
21771;SDS011;11047;47.904;8.110;2023-04-24T14:46:07;6.93;;;1.75;;
21771;SDS011;11047;47.904;8.110;2023-04-24T14:48:34;2.50;;;1.45;;
21771;SDS011;11047;47.904;8.110;2023-04-24T14:51:01;2.20;;;1.35;;
21771;SDS011;11047;47.904;8.110;2023-04-24T14:53:32;2.25;;;1.35;;
21771;SDS011;11047;47.904;8.110;2023-04-24T14:55:59;2.25;;;1.52;;
21771;SDS011;11047;47.904;8.110;2023-04-24T14:58:26;1.17;;;1.00;;
21771;SDS011;11047;47.904;8.110;2023-04-24T15:00:53;2.00;;;1.67;;
21771;SDS011;11047;47.904;8.110;2023-04-24T15:03:20;2.75;;;1.10;;
21771;SDS011;11047;47.904;8.110;2023-04-24T15:05:47;1.75;;;1.30;;
21771;SDS011;11047;47.904;8.110;2023-04-24T15:08:14;2.03;;;1.30;;
21771;SDS011;11047;47.904;8.110;2023-04-24T15:10:43;2.63;;;1.27;;